Time;durP1;ratioP1;P1;durP2;ratioP2;P2;SDS_P1;SDS_P2;PMS_P1;PMS_P2;Temp;Humidity;BMP_temperature;BMP_pressure;BME280_temperature;BME280_humidity;BME280_pressure;Samples;Min_cycle;Max_cycle;Signal;HPM_P1;HPM_P2
2022/12/19 00:01:16;;;;;;;42.47;15.43;;;1.10;99.90;;;;;;5054652;28;20035;-76
2022/12/19 00:03:50;;;;;;;40.67;14.90;;;-0.70;99.90;;;;;;5056504;28;20028;-78
2022/12/19 00:06:19;;;;;;;44.35;17.38;;;-0.60;99.90;;;;;;5053136;28;20029;-80
2022/12/19 00:08:45;;;;;;;48.97;17.08;;;-0.60;99.90;;;;;;5052127;28;20025;-79
2022/12/19 00:11:12;;;;;;;42.22;19.17;;;-0.30;99.90;;;;;;5051545;28;20128;-78
2022/12/19 00:13:39;;;;;;;41.75;18.33;;;-0.60;99.90;;;;;;5051163;28;20025;-77
2022/12/19 00:16:07;;;;;;;45.40;19.80;;;-0.80;99.90;;;;;;5049444;28;20120;-79
2022/12/19 00:18:33;;;;;;;34.85;18.48;;;-0.60;99.90;;;;;;5053284;28;20014;-79
2022/12/19 00:21:01;;;;;;;45.58;16.98;;;1.40;99.90;;;;;;5053790;28;20090;-76
2022/12/19 00:23:29;;;;;;;38.85;17.10;;;1.10;99.90;;;;;;5052048;28;20382;-76
2022/12/19 00:25:55;;;;;;;39.55;17.40;;;-0.60;99.90;;;;;;5051679;28;20044;-79
2022/12/19 00:28:21;;;;;;;42.47;17.83;;;-0.60;99.90;;;;;;5051495;28;20025;-75
2022/12/19 00:30:46;;;;;;;37.53;15.90;;;1.70;99.90;;;;;;5050483;28;20070;-76
2022/12/19 00:33:12;;;;;;;44.33;16.13;;;-0.50;99.90;;;;;;5050781;28;20113;-78
2022/12/19 00:35:38;;;;;;;49.35;17.83;;;-0.50;99.90;;;;;;5052739;28;20021;-76
2022/12/19 00:38:03;;;;;;;49.75;17.95;;;0.30;99.90;;;;;;5052110;28;20512;-77
2022/12/19 00:40:29;;;;;;;45.38;18.50;;;-0.40;99.90;;;;;;5052530;28;20025;-78
2022/12/19 00:42:55;;;;;;;48.95;19.33;;;;;;;;;;5052012;28;20036;-76
2022/12/19 00:45:21;;;;;;;52.15;19.80;;;-0.50;99.90;;;;;;5051783;28;20116;-78
2022/12/19 00:47:46;;;;;;;39.38;15.82;;;-0.50;99.90;;;;;;5051957;28;20385;-77
2022/12/19 00:50:12;;;;;;;39.85;15.20;;;2.00;99.90;;;;;;5051813;28;20075;-78
2022/12/19 00:52:38;;;;;;;42.40;14.00;;;;;;;;;;5050460;28;20021;-76
2022/12/19 00:55:04;;;;;;;39.72;15.68;;;-0.70;99.90;;;;;;5051670;28;20473;-78
2022/12/19 00:57:30;;;;;;;42.85;14.80;;;-0.60;99.90;;;;;;5051148;28;20067;-78
2022/12/19 00:59:56;;;;;;;36.75;13.95;;;;;;;;;;5050128;28;20032;-78
2022/12/19 01:02:21;;;;;;;32.88;13.98;;;-0.70;99.90;;;;;;5051607;28;20082;-77
2022/12/19 01:04:47;;;;;;;39.17;16.05;;;1.50;99.90;;;;;;5051683;28;20098;-76
2022/12/19 01:07:13;;;;;;;37.22;16.23;;;0.20;99.90;;;;;;5051364;28;20055;-76
2022/12/19 01:09:38;;;;;;;41.05;16.00;;;-0.60;99.90;;;;;;5051593;28;20104;-77
2022/12/19 01:14:52;;;;;;;43.75;15.98;;;-0.60;99.90;;;;;;5051420;28;20035;-75
2022/12/19 01:17:18;;;;;;;39.87;16.10;;;-0.50;99.90;;;;;;5051893;28;20027;-76
2022/12/19 01:19:44;;;;;;;33.78;15.13;;;-0.60;99.90;;;;;;5049908;28;20116;-76
2022/12/19 01:22:10;;;;;;;51.92;17.67;;;-0.60;99.90;;;;;;5051707;28;20025;-75
2022/12/19 01:24:35;;;;;;;44.55;17.70;;;-0.30;99.90;;;;;;5053344;28;20217;-76
2022/12/19 01:27:01;;;;;;;46.15;18.80;;;-0.10;99.90;;;;;;5053678;28;20049;-77
2022/12/19 01:29:27;;;;;;;49.13;18.40;;;-0.30;99.90;;;;;;5051838;28;20135;-74
2022/12/19 01:31:52;;;;;;;45.58;16.27;;;1.40;99.90;;;;;;5053338;28;20377;-76
2022/12/19 01:34:18;;;;;;;38.13;16.25;;;-0.40;99.90;;;;;;5054237;28;20040;-76
2022/12/19 01:36:44;;;;;;;42.38;17.23;;;-0.40;99.90;;;;;;5053977;28;20028;-76
2022/12/19 01:39:09;;;;;;;39.92;13.65;;;1.00;99.90;;;;;;5054295;28;20032;-77
2022/12/19 01:41:36;;;;;;;43.08;16.98;;;-0.40;99.90;;;;;;5051980;28;20036;-75
2022/12/19 01:44:05;;;;;;;47.30;16.80;;;-0.40;99.90;;;;;;5065940;28;20505;-73
2022/12/19 01:46:57;;;;;;;43.42;17.65;;;-0.50;99.90;;;;;;5049182;28;20533;-73
2022/12/19 01:49:34;;;;;;;39.20;16.25;;;-0.50;99.90;;;;;;5062500;28;20029;-76
2022/12/19 01:52:04;;;;;;;43.80;17.67;;;-0.40;99.90;;;;;;5049733;28;20021;-77
2022/12/19 01:54:37;;;;;;;;;;;-0.50;99.90;;;;;;5066176;28;20028;-76
2022/12/19 01:57:09;;;;;;;34.22;15.63;;;-0.50;99.90;;;;;;5047978;28;20397;-76
2022/12/19 01:59:40;;;;;;;55.83;20.77;;;-0.40;99.90;;;;;;5049104;28;20029;-75
2022/12/19 02:02:24;;;;;;;32.65;15.43;;;0.00;99.90;;;;;;5052297;28;20017;-76
2022/12/19 02:04:50;;;;;;;40.30;16.15;;;-0.40;99.90;;;;;;5051183;28;20029;-76
2022/12/19 02:07:17;;;;;;;40.28;15.57;;;-0.30;99.90;;;;;;5052003;28;20021;-75
2022/12/19 02:09:50;;;;;;;43.40;18.80;;;-0.40;99.90;;;;;;5055320;28;20053;-76
2022/12/19 02:12:16;;;;;;;37.22;15.77;;;-0.10;99.90;;;;;;5055096;28;20029;-75
2022/12/19 02:14:42;;;;;;;41.50;18.65;;;1.50;99.90;;;;;;5059534;28;20025;-77
2022/12/19 02:17:19;;;;;;;45.08;19.30;;;2.10;99.90;;;;;;5058337;28;20374;-76
2022/12/19 02:20:26;;;;;;;55.47;19.58;;;-0.40;99.90;;;;;;5057719;28;20025;-77
2022/12/19 02:23:26;;;;;;;44.22;17.75;;;-0.40;99.90;;;;;;5058444;28;20044;-75
2022/12/19 02:26:15;;;;;;;39.65;17.27;;;-0.30;99.90;;;;;;5043036;28;20664;-76
2022/12/19 02:29:02;;;;;;;48.75;19.85;;;-0.30;99.90;;;;;;5037395;28;20036;-75
2022/12/19 02:31:35;;;;;;;48.25;19.35;;;-0.30;99.90;;;;;;5039268;28;20079;-78
2022/12/19 02:34:12;;;;;;;49.45;17.15;;;-0.20;99.90;;;;;;5039636;28;20063;-76
2022/12/19 02:36:52;;;;;;;42.47;15.50;;;-0.10;99.90;;;;;;5039969;28;20032;-76
2022/12/19 02:39:30;;;;;;;43.33;19.83;;;-0.10;99.90;;;;;;5032767;28;20021;-77
2022/12/19 02:41:57;;;;;;;51.88;17.58;;;0.00;99.90;;;;;;5031815;28;20026;-74
2022/12/19 02:44:30;;;;;;;41.60;17.88;;;0.60;99.90;;;;;;5030304;28;20060;-78
2022/12/19 02:46:59;;;;;;;46.85;16.58;;;0.00;99.90;;;;;;5029272;28;20104;-77
2022/12/19 02:49:27;;;;;;;48.55;19.77;;;0.00;99.90;;;;;;5030874;28;20079;-76
2022/12/19 02:51:53;;;;;;;39.33;15.32;;;0.00;99.90;;;;;;5030146;28;20080;-76
2022/12/19 02:54:18;;;;;;;42.65;16.77;;;0.10;99.90;;;;;;5031161;28;20411;-78
2022/12/19 02:56:44;;;;;;;42.95;18.50;;;0.10;99.90;;;;;;5032434;28;20421;-76
2022/12/19 02:59:24;;;;;;;35.10;17.33;;;0.10;99.90;;;;;;5034136;28;20040;-78
2022/12/19 03:02:13;;;;;;;38.65;14.45;;;0.10;99.90;;;;;;5032677;28;20024;-77
2022/12/19 03:04:53;;;;;;;42.13;16.20;;;0.10;99.90;;;;;;5032872;28;20486;-77
2022/12/19 03:07:41;;;;;;;35.42;16.23;;;0.10;99.90;;;;;;5034568;28;20375;-78
2022/12/19 03:10:24;;;;;;;30.55;13.75;;;0.00;99.90;;;;;;5049160;28;20047;-77
2022/12/19 03:12:55;;;;;;;46.80;16.75;;;0.00;99.90;;;;;;5033571;28;20395;-77
2022/12/19 03:15:21;;;;;;;40.25;15.02;;;0.10;99.90;;;;;;5034126;28;20409;-78
2022/12/19 03:17:47;;;;;;;34.15;14.60;;;0.10;99.90;;;;;;5033653;28;20026;-76
2022/12/19 03:20:24;;;;;;;39.15;15.20;;;0.00;99.90;;;;;;5033519;28;20056;-76
2022/12/19 03:22:50;;;;;;;36.60;19.35;;;0.10;99.90;;;;;;5033589;28;20100;-76
2022/12/19 03:25:17;;;;;;;36.50;15.48;;;2.30;99.90;;;;;;5033405;28;20046;-77
2022/12/19 03:27:47;;;;;;;36.78;17.15;;;0.10;99.90;;;;;;5033748;28;20049;-76
2022/12/19 03:30:13;;;;;;;33.72;13.70;;;1.60;99.90;;;;;;5033696;28;20025;-76
2022/12/19 03:32:42;;;;;;;42.47;16.15;;;0.00;99.90;;;;;;5033570;28;20030;-76
2022/12/19 03:35:23;;;;;;;38.28;17.77;;;1.80;99.90;;;;;;5033545;28;20022;-77
2022/12/19 03:37:57;;;;;;;42.63;15.48;;;0.00;99.90;;;;;;5033536;28;20034;-76
2022/12/19 03:40:24;;;;;;;34.72;15.32;;;0.00;99.90;;;;;;5033403;28;20394;-77
2022/12/19 03:43:09;;;;;;;44.70;16.33;;;0.00;99.90;;;;;;5033192;28;20900;-77
2022/12/19 03:46:00;;;;;;;35.63;15.43;;;0.10;99.90;;;;;;5033007;28;20048;-76
2022/12/19 03:48:42;;;;;;;37.60;12.95;;;0.10;99.90;;;;;;5033417;28;20030;-78
2022/12/19 03:51:10;;;;;;;36.25;15.57;;;0.10;99.90;;;;;;5048643;28;20435;-76
2022/12/19 03:53:39;;;;;;;31.33;12.45;;;0.10;99.90;;;;;;5033786;28;20053;-77
2022/12/19 03:56:15;;;;;;;39.15;14.13;;;0.20;99.90;;;;;;5036798;28;20108;-76
2022/12/19 03:58:47;;;;;;;31.38;13.90;;;0.20;99.90;;;;;;5036681;28;20023;-78
2022/12/19 04:01:13;;;;;;;40.80;14.93;;;;;;;;;;5035650;28;20037;-76
2022/12/19 04:03:39;;;;;;;33.13;14.98;;;0.10;99.90;;;;;;5035024;28;20041;-77
2022/12/19 04:06:05;;;;;;;40.80;14.25;;;0.10;99.90;;;;;;5033070;28;20563;-75
2022/12/19 04:08:32;;;;;;;31.77;15.23;;;0.00;99.90;;;;;;5032806;28;20018;-76
2022/12/19 04:11:03;;;;;;;32.65;14.15;;;1.00;99.90;;;;;;5032663;28;20037;-78
2022/12/19 04:13:48;;;;;;;31.00;14.63;;;0.00;99.90;;;;;;5032436;28;20104;-78
2022/12/19 04:16:23;;;;;;;32.15;14.60;;;0.10;99.90;;;;;;5032552;28;20105;-75
2022/12/19 04:18:55;;;;;;;28.50;12.68;;;0.00;99.90;;;;;;5032835;28;20022;-77
2022/12/19 04:21:34;;;;;;;38.03;14.93;;;0.00;99.90;;;;;;5032745;28;20163;-77
2022/12/19 04:24:11;;;;;;;35.55;13.38;;;0.10;99.90;;;;;;5031336;28;20025;-77
2022/12/19 04:26:38;;;;;;;28.55;12.88;;;1.50;99.90;;;;;;5032924;28;20033;-77
2022/12/19 04:29:06;;;;;;;34.75;13.68;;;0.10;99.90;;;;;;5047456;28;20457;-78
2022/12/19 04:31:32;;;;;;;28.05;13.85;;;-0.20;99.90;;;;;;5032225;28;20418;-76
2022/12/19 04:33:58;;;;;;;30.42;13.15;;;0.90;99.90;;;;;;5032147;28;20036;-76
2022/12/19 04:36:25;;;;;;;29.23;13.05;;;0.20;99.90;;;;;;5049635;28;20443;-76
2022/12/19 04:38:51;;;;;;;34.92;13.48;;;0.50;99.90;;;;;;5051850;28;20033;-77
2022/12/19 04:41:17;;;;;;;37.28;16.02;;;0.00;99.90;;;;;;5051854;28;20167;-76
2022/12/19 04:43:42;;;;;;;32.90;13.18;;;0.00;99.90;;;;;;5051237;28;20517;-78
2022/12/19 04:46:08;;;;;;;33.20;13.30;;;0.00;99.90;;;;;;5052156;28;20448;-75
2022/12/19 04:48:35;;;;;;;34.97;14.02;;;0.00;99.90;;;;;;5051869;28;20432;-76
2022/12/19 04:51:00;;;;;;;39.72;13.05;;;-0.10;99.90;;;;;;5051925;28;20065;-77
2022/12/19 04:53:26;;;;;;;33.72;14.57;;;2.30;99.90;;;;;;5051745;28;20068;-74
2022/12/19 04:56:03;;;;;;;29.90;14.13;;;0.00;99.90;;;;;;5051784;28;20025;-76
2022/12/19 04:58:28;;;;;;;39.00;16.17;;;-0.10;99.90;;;;;;5051422;28;20021;-75
2022/12/19 05:00:54;;;;;;;37.05;12.98;;;-0.10;99.90;;;;;;5051990;28;20065;-75
2022/12/19 05:03:20;;;;;;;32.33;14.00;;;0.80;99.90;;;;;;5051770;28;20028;-76
2022/12/19 05:05:45;;;;;;;36.65;13.65;;;-0.20;99.90;;;;;;5051196;28;20037;-76
2022/12/19 05:08:11;;;;;;;30.27;13.75;;;-0.20;99.90;;;;;;5051857;28;20493;-76
2022/12/19 05:10:37;;;;;;;30.55;13.60;;;1.20;99.90;;;;;;5051497;28;20041;-76
2022/12/19 05:13:02;;;;;;;30.25;12.43;;;2.10;99.90;;;;;;5051194;28;20032;-74
2022/12/19 05:15:28;;;;;;;32.50;14.00;;;-0.10;99.90;;;;;;5052139;28;20026;-77
2022/12/19 05:17:54;;;;;;;40.83;14.82;;;-0.20;99.90;;;;;;5055026;28;20074;-75
2022/12/19 05:20:19;;;;;;;29.83;13.40;;;1.70;99.90;;;;;;5054223;28;20183;-76
2022/12/19 05:22:45;;;;;;;24.75;12.40;;;-0.20;99.90;;;;;;5054558;28;20524;-75
2022/12/19 05:25:10;;;;;;;28.98;12.07;;;-0.20;99.90;;;;;;5052962;28;20040;-75
2022/12/19 05:27:36;;;;;;;30.55;11.68;;;-0.20;99.90;;;;;;5051473;28;20187;-75
2022/12/19 05:30:02;;;;;;;28.85;12.65;;;-0.10;99.90;;;;;;5051217;28;20074;-76
2022/12/19 05:32:31;;;;;;;32.13;14.07;;;3.40;99.90;;;;;;5050849;28;20371;-75
2022/12/19 05:34:57;;;;;;;33.47;15.07;;;-0.20;99.90;;;;;;5050965;28;20021;-76
2022/12/19 05:37:22;;;;;;;30.52;13.38;;;-0.20;99.90;;;;;;5051136;28;20456;-77
2022/12/19 05:39:48;;;;;;;27.35;12.73;;;-0.20;99.90;;;;;;5051000;28;20473;-75
2022/12/19 05:42:14;;;;;;;38.10;15.60;;;-0.20;99.90;;;;;;5049486;28;20025;-75
2022/12/19 05:44:39;;;;;;;26.25;12.02;;;-0.30;99.90;;;;;;5050484;28;20037;-75
2022/12/19 05:47:05;;;;;;;27.10;12.10;;;-0.60;99.90;;;;;;5051203;28;20450;-76
2022/12/19 05:49:31;;;;;;;25.15;12.32;;;-0.20;99.90;;;;;;5051204;28;20029;-75
2022/12/19 05:51:56;;;;;;;31.38;12.90;;;-0.10;99.90;;;;;;5052621;28;20482;-75
2022/12/19 05:54:22;;;;;;;37.13;15.80;;;1.20;99.90;;;;;;5053985;28;20025;-76
2022/12/19 05:56:48;;;;;;;30.33;14.32;;;-0.20;99.90;;;;;;5053980;28;20494;-76
2022/12/19 05:59:13;;;;;;;33.92;13.32;;;0.00;99.90;;;;;;5053501;28;20442;-75
2022/12/19 06:01:39;;;;;;;25.92;12.50;;;0.00;99.90;;;;;;5053211;28;20029;-77
2022/12/19 06:04:06;;;;;;;27.65;15.13;;;0.00;99.90;;;;;;5053829;28;20029;-77
2022/12/19 06:06:32;;;;;;;34.83;13.73;;;0.10;99.90;;;;;;5052598;28;20486;-77
2022/12/19 06:08:58;;;;;;;29.75;12.77;;;0.20;99.90;;;;;;5050351;28;20048;-76
2022/12/19 06:11:25;;;;;;;32.45;12.63;;;0.10;99.90;;;;;;5049973;28;20025;-74
2022/12/19 06:13:51;;;;;;;25.77;13.32;;;0.10;99.90;;;;;;5049849;28;20067;-74
2022/12/19 06:16:19;;;;;;;28.70;12.27;;;0.10;99.90;;;;;;5049854;28;20028;-74
2022/12/19 06:18:45;;;;;;;27.25;13.98;;;1.90;99.90;;;;;;5050190;28;20389;-73
2022/12/19 06:21:22;;;;;;;30.92;14.77;;;0.80;99.90;;;;;;5049908;28;20512;-76
2022/12/19 06:23:47;;;;;;;29.75;13.57;;;0.10;99.90;;;;;;5050028;28;20021;-77
2022/12/19 06:26:16;;;;;;;29.95;11.73;;;0.20;99.90;;;;;;5050284;28;20044;-77
2022/12/19 06:28:42;;;;;;;34.87;15.53;;;0.00;99.90;;;;;;5049717;28;20033;-75
2022/12/19 06:31:09;;;;;;;29.77;12.38;;;0.10;99.90;;;;;;5049083;28;20025;-76
2022/12/19 06:33:34;;;;;;;30.67;11.75;;;-2.70;99.90;;;;;;5049855;28;20017;-76
2022/12/19 06:36:02;;;;;;;33.28;14.60;;;0.50;99.90;;;;;;5049851;28;20527;-76
2022/12/19 06:38:29;;;;;;;32.55;14.15;;;1.90;99.90;;;;;;5049570;28;20064;-76
2022/12/19 06:43:39;;;;;;;33.90;12.73;;;0.00;99.90;;;;;;5049542;28;20557;-75
2022/12/19 06:46:05;;;;;;;34.92;12.50;;;0.00;99.90;;;;;;5048248;28;20119;-77
2022/12/19 06:48:31;;;;;;;27.35;11.52;;;0.90;99.90;;;;;;5047307;28;20021;-82
2022/12/19 06:50:57;;;;;;;23.25;11.68;;;-0.20;99.90;;;;;;5049123;28;20051;-83
2022/12/19 06:53:23;;;;;;;29.33;12.38;;;-0.20;99.90;;;;;;5048121;28;20025;-82
2022/12/19 06:55:52;;;;;;;26.42;11.40;;;-0.20;99.90;;;;;;5049700;28;20029;-83
2022/12/19 06:58:17;;;;;;;28.20;13.02;;;1.60;99.90;;;;;;5049403;28;20119;-82
2022/12/19 07:00:43;;;;;;;26.55;11.63;;;-0.40;99.90;;;;;;5049454;28;20039;-79
2022/12/19 07:03:12;;;;;;;32.05;13.05;;;-0.40;99.90;;;;;;5049317;28;20074;-82
2022/12/19 07:05:39;;;;;;;27.90;11.25;;;-0.60;99.90;;;;;;5065412;28;20036;-84
2022/12/19 07:08:04;;;;;;;23.67;11.43;;;-0.50;99.90;;;;;;5050034;28;20078;-81
2022/12/19 07:10:30;;;;;;;28.33;12.88;;;-0.60;99.90;;;;;;5049046;28;20432;-80
2022/12/19 07:12:56;;;;;;;32.35;12.50;;;1.20;99.90;;;;;;5048496;28;20021;-81
2022/12/19 07:15:22;;;;;;;28.15;12.18;;;-0.70;99.90;;;;;;5044836;28;20045;-81
2022/12/19 07:17:48;;;;;;;30.50;12.65;;;;;;;;;;5028574;28;20024;-83
2022/12/19 07:20:15;;;;;;;28.15;13.05;;;-0.70;99.90;;;;;;5031135;28;20032;-81
2022/12/19 07:22:41;;;;;;;34.97;13.02;;;-0.70;99.90;;;;;;5048507;28;20104;-86
2022/12/19 07:25:07;;;;;;;34.65;13.15;;;-0.70;99.90;;;;;;5048886;28;20160;-73
2022/12/19 07:27:34;;;;;;;26.50;11.95;;;-0.70;99.90;;;;;;5047676;28;20021;-76
2022/12/19 07:29:59;;;;;;;25.10;12.65;;;-0.70;99.90;;;;;;5047292;28;20025;-76
2022/12/19 07:32:25;;;;;;;32.33;14.43;;;-0.70;99.90;;;;;;5046734;28;20130;-76
2022/12/19 07:34:53;;;;;;;29.67;12.23;;;-0.70;99.90;;;;;;5046261;28;20100;-77
2022/12/19 07:37:20;;;;;;;31.88;14.38;;;-0.80;99.90;;;;;;5046695;28;20064;-76
2022/12/19 07:39:46;;;;;;;28.10;13.52;;;-0.70;99.90;;;;;;5050660;28;20036;-74
2022/12/19 07:42:12;;;;;;;35.45;14.88;;;-0.20;99.90;;;;;;5054653;28;20029;-81
2022/12/19 07:44:38;;;;;;;39.38;15.88;;;-0.60;99.90;;;;;;5058093;28;20043;-84
2022/12/19 07:47:04;;;;;;;33.97;13.68;;;-0.60;99.90;;;;;;5055388;28;20029;-79
2022/12/19 07:49:29;;;;;;;32.60;13.20;;;-0.60;99.90;;;;;;5051679;28;20493;-75
2022/12/19 07:51:55;;;;;;;35.00;14.32;;;-0.60;99.90;;;;;;5050766;28;20036;-77
2022/12/19 07:54:21;;;;;;;39.20;13.80;;;1.80;99.90;;;;;;5050138;28;20430;-80
2022/12/19 07:56:46;;;;;;;37.10;13.32;;;0.50;99.90;;;;;;5059056;28;20240;-77
2022/12/19 07:59:12;;;;;;;35.50;13.95;;;-0.40;99.90;;;;;;5050352;28;20068;-80
2022/12/19 08:01:38;;;;;;;33.88;14.40;;;-0.20;99.90;;;;;;5047689;28;20013;-82
2022/12/19 08:04:03;;;;;;;24.30;13.70;;;1.50;99.90;;;;;;5044000;28;20026;-82
2022/12/19 08:06:29;;;;;;;34.83;13.50;;;;;;;;;;5042503;28;20529;-73
2022/12/19 08:08:55;;;;;;;30.83;14.05;;;0.00;99.90;;;;;;5043338;28;20024;-74
2022/12/19 08:11:25;;;;;;;30.88;13.18;;;0.00;99.90;;;;;;5047141;28;20104;-82
2022/12/19 08:13:52;;;;;;;35.03;12.25;;;1.10;99.90;;;;;;5045881;28;20106;-81
2022/12/19 08:16:18;;;;;;;29.90;12.50;;;0.20;99.90;;;;;;5041943;28;20033;-79
2022/12/19 08:18:44;;;;;;;31.48;14.50;;;0.20;99.90;;;;;;5047940;28;20040;-77
2022/12/19 08:21:10;;;;;;;24.15;12.55;;;1.90;99.90;;;;;;5043855;28;20025;-77
2022/12/19 08:23:37;;;;;;;33.25;14.13;;;0.20;99.90;;;;;;5046906;28;20036;-75
2022/12/19 08:26:12;;;;;;;33.78;13.18;;;0.10;99.90;;;;;;5042356;28;20122;-74
2022/12/19 08:28:38;;;;;;;31.95;12.27;;;0.30;99.90;;;;;;5043772;28;20029;-80
2022/12/19 08:31:11;;;;;;;26.05;11.43;;;0.30;99.90;;;;;;5042252;28;20022;-74
2022/12/19 08:33:37;;;;;;;27.75;12.63;;;0.30;99.90;;;;;;5047432;28;20025;-82
2022/12/19 08:36:05;;;;;;;30.10;16.50;;;0.30;99.90;;;;;;5044816;28;20025;-87
2022/12/19 08:38:31;;;;;;;44.22;16.45;;;0.40;99.90;;;;;;5037575;28;20558;-74
2022/12/19 08:40:57;;;;;;;28.25;12.57;;;;;;;;;;5047076;28;20068;-76
2022/12/19 08:43:24;;;;;;;39.05;18.80;;;;;;;;;;5049409;28;20040;-87
2022/12/19 08:45:49;;;;;;;31.13;14.38;;;0.60;99.90;;;;;;5057503;28;20102;-77
2022/12/19 08:48:18;;;;;;;32.83;16.15;;;1.80;99.90;;;;;;5043313;28;20029;-74
2022/12/19 08:50:54;;;;;;;34.50;14.73;;;2.40;99.90;;;;;;5043172;28;20025;-75
2022/12/19 08:53:20;;;;;;;29.02;12.25;;;1.10;99.90;;;;;;5045694;28;20040;-75
2022/12/19 08:55:46;;;;;;;24.42;12.68;;;1.20;99.90;;;;;;5054725;28;20028;-78
2022/12/19 08:58:12;;;;;;;28.17;12.38;;;;;;;;;;5045025;28;20588;-78
2022/12/19 09:00:38;;;;;;;30.92;14.88;;;1.40;99.90;;;;;;5058233;28;20313;-75
2022/12/19 09:03:04;;;;;;;20.88;10.10;;;3.20;99.90;;;;;;5053145;28;20037;-76
2022/12/19 09:05:29;;;;;;;29.15;13.15;;;2.70;99.90;;;;;;5048034;28;20033;-73
2022/12/19 09:07:55;;;;;;;54.50;25.55;;;2.00;99.90;;;;;;5047594;28;20108;-74
2022/12/19 09:10:21;;;;;;;26.30;13.02;;;1.50;99.90;;;;;;5041277;28;20017;-75
2022/12/19 09:12:46;;;;;;;25.55;11.25;;;1.70;99.90;;;;;;5045461;28;20025;-73
2022/12/19 09:15:12;;;;;;;28.23;12.82;;;2.60;99.90;;;;;;5054408;28;20021;-73
2022/12/19 09:17:38;;;;;;;18.95;10.23;;;1.30;99.90;;;;;;5050977;28;20021;-77
2022/12/19 09:20:05;;;;;;;27.70;11.65;;;;;;;;;;5039667;28;20364;-78
2022/12/19 09:22:30;;;;;;;26.20;11.63;;;1.40;99.90;;;;;;5031412;28;20018;-89
2022/12/19 09:24:56;;;;;;;22.08;12.32;;;1.40;99.90;;;;;;5040189;28;20595;-87
2022/12/19 09:27:23;;;;;;;26.20;10.88;;;1.50;99.90;;;;;;5048651;28;20040;-86
2022/12/19 09:29:49;;;;;;;24.00;10.43;;;2.20;99.90;;;;;;5041643;28;20437;-73
2022/12/19 09:32:14;;;;;;;29.27;11.82;;;2.50;99.90;;;;;;5044210;28;20102;-76
2022/12/19 09:34:40;;;;;;;25.70;10.93;;;1.70;99.90;;;;;;5044054;28;20159;-84
2022/12/19 09:37:08;;;;;;;18.50;10.93;;;1.80;99.90;;;;;;5046450;28;20085;-79
2022/12/19 09:39:34;;;;;;;21.00;9.38;;;1.60;99.90;;;;;;5051542;28;20214;-78
2022/12/19 09:42:31;;;;;;;20.15;11.88;;;2.00;99.90;;;;;;5054954;28;20071;-74
2022/12/19 09:45:10;;;;;;;18.85;9.60;;;1.80;99.90;;;;;;5050089;28;20125;-78
2022/12/19 09:47:40;;;;;;;21.40;11.20;;;2.50;99.90;;;;;;5048390;28;20320;-77
2022/12/19 09:50:25;;;;;;;23.83;11.45;;;1.70;99.90;;;;;;5055010;28;20291;-77
2022/12/19 09:52:59;;;;;;;26.17;12.15;;;1.70;99.90;;;;;;5056668;28;20023;-77
2022/12/19 09:55:30;;;;;;;28.25;12.35;;;1.80;99.90;;;;;;5047695;28;20096;-75
2022/12/19 09:57:56;;;;;;;31.33;14.25;;;;;;;;;;5054713;28;20025;-77
2022/12/19 10:00:22;;;;;;;24.08;11.73;;;1.80;99.90;;;;;;5043341;28;20052;-83
2022/12/19 10:02:57;;;;;;;29.63;12.27;;;1.90;99.90;;;;;;5046855;28;20029;-77
2022/12/19 10:05:44;;;;;;;32.38;12.07;;;2.10;99.90;;;;;;5051046;28;20513;-82
2022/12/19 10:08:34;;;;;;;26.65;11.88;;;2.20;99.90;;;;;;5043615;28;20028;-75
2022/12/19 10:11:01;;;;;;;27.10;11.88;;;2.20;99.90;;;;;;5045757;28;20512;-81
2022/12/19 10:13:49;;;;;;;26.13;12.63;;;3.30;99.90;;;;;;5039239;28;20021;-75
2022/12/19 10:16:15;;;;;;;25.70;11.13;;;;;;;;;;5049162;28;20021;-83
2022/12/19 10:18:51;;;;;;;28.00;10.38;;;2.70;99.90;;;;;;5055768;28;20040;-81
2022/12/19 10:21:54;;;;;;;25.40;10.98;;;2.20;99.90;;;;;;5047372;28;20044;-82
2022/12/19 10:24:29;;;;;;;22.83;10.35;;;2.90;99.90;;;;;;5018747;28;20085;-76
2022/12/19 10:27:25;;;;;;;22.65;11.55;;;3.10;99.90;;;;;;5050734;28;20028;-83
2022/12/19 10:30:02;;;;;;;25.05;11.30;;;3.20;99.90;;;;;;5013919;28;20045;-78
2022/12/19 10:32:36;;;;;;;40.50;19.30;;;3.20;99.90;;;;;;5045717;28;20202;-76
2022/12/19 10:35:12;;;;;;;26.48;11.30;;;3.40;99.90;;;;;;5045788;28;20564;-80
2022/12/19 10:37:49;;;;;;;19.05;9.32;;;3.20;99.90;;;;;;5047023;28;20041;-75
2022/12/19 10:40:18;;;;;;;22.10;10.38;;;3.20;99.90;;;;;;5050469;28;20021;-77
2022/12/19 10:42:55;;;;;;;21.05;9.95;;;3.10;99.90;;;;;;5069109;28;20493;-76
2022/12/19 10:45:23;;;;;;;24.20;12.00;;;4.70;99.90;;;;;;5032812;28;20059;-76
2022/12/19 10:47:51;;;;;;;20.30;10.52;;;;;;;;;;5033489;28;20022;-85
2022/12/19 10:50:21;;;;;;;20.53;11.77;;;3.00;99.90;;;;;;5041773;28;20054;-76
2022/12/19 10:53:06;;;;;;;24.55;9.43;;;2.80;99.90;;;;;;5056914;28;20025;-81
2022/12/19 10:55:33;;;;;;;24.60;10.48;;;;;;;;;;5054390;28;20021;-76
2022/12/19 10:58:09;;;;;;;19.88;10.30;;;2.90;99.90;;;;;;5073766;28;20236;-85
2022/12/19 11:00:35;;;;;;;18.33;10.10;;;;;;;;;;5054737;28;20028;-81
2022/12/19 11:03:12;;;;;;;17.27;9.15;;;3.00;99.90;;;;;;5074198;28;20024;-76
2022/12/19 11:05:47;;;;;;;19.77;9.60;;;3.20;99.90;;;;;;5056435;28;20036;-77
2022/12/19 11:08:23;;;;;;;20.95;10.00;;;3.60;99.90;;;;;;5043819;28;20057;-76
2022/12/19 11:10:55;;;;;;;20.20;8.82;;;3.50;99.90;;;;;;5050602;28;20028;-78
2022/12/19 11:13:27;;;;;;;17.85;9.40;;;3.50;99.90;;;;;;5050524;28;20025;-76
2022/12/19 11:15:56;;;;;;;16.35;8.27;;;3.50;99.90;;;;;;5041898;28;20025;-77
2022/12/19 11:18:22;;;;;;;21.67;11.03;;;;;;;;;;5032166;28;20029;-81
2022/12/19 11:20:58;;;;;;;22.30;10.55;;;3.60;99.90;;;;;;5029950;28;20306;-79
2022/12/19 11:23:25;;;;;;;23.23;10.60;;;3.90;99.90;;;;;;5041264;28;20099;-78
2022/12/19 11:26:00;;;;;;;17.30;9.90;;;3.90;99.90;;;;;;5033081;28;20398;-76
2022/12/19 11:28:29;;;;;;;19.00;9.40;;;3.80;99.90;;;;;;5034372;28;20030;-79
2022/12/19 11:31:10;;;;;;;29.80;11.88;;;3.90;99.90;;;;;;5043892;28;20032;-83
2022/12/19 11:33:36;;;;;;;17.00;8.00;;;;;;;;;;5030699;28;20037;-78
2022/12/19 11:36:03;;;;;;;18.05;7.40;;;3.40;99.90;;;;;;5046556;28;20116;-75
2022/12/19 11:38:36;;;;;;;16.55;8.35;;;;;;;;;;5048977;28;20374;-77
2022/12/19 11:41:13;;;;;;;11.40;7.28;;;3.00;99.90;;;;;;5046770;28;20099;-76
2022/12/19 11:43:48;;;;;;;17.90;8.85;;;3.00;99.90;;;;;;5040039;28;20497;-77
2022/12/19 11:46:33;;;;;;;23.65;8.85;;;4.20;99.90;;;;;;5050609;28;20116;-81
2022/12/19 11:49:08;;;;;;;25.35;11.23;;;2.90;99.90;;;;;;5050098;28;20144;-77
2022/12/19 11:51:48;;;;;;;18.75;9.00;;;2.90;99.90;;;;;;5050192;28;20402;-74
2022/12/19 11:54:26;;;;;;;17.73;8.95;;;2.90;99.90;;;;;;5056253;28;20017;-74
2022/12/19 11:57:10;;;;;;;15.55;8.48;;;2.90;99.90;;;;;;5074005;28;20037;-78
2022/12/19 11:59:37;;;;;;;19.20;9.48;;;3.10;99.90;;;;;;5076306;28;20095;-74
2022/12/19 12:02:33;;;;;;;13.00;7.05;;;3.30;99.90;;;;;;5071047;28;20025;-80
2022/12/19 12:05:21;;;;;;;18.48;9.35;;;3.50;99.90;;;;;;5074987;28;20489;-74
2022/12/19 12:08:04;;;;;;;16.77;10.45;;;3.70;99.90;;;;;;5074881;28;20017;-74
2022/12/19 12:10:33;;;;;;;15.55;9.27;;;3.80;99.90;;;;;;5069880;28;20028;-74
2022/12/19 12:13:07;;;;;;;22.27;9.35;;;4.70;99.90;;;;;;5060622;28;20078;-79
2022/12/19 12:15:45;;;;;;;13.88;7.65;;;4.50;99.90;;;;;;5055438;28;20059;-81
2022/12/19 12:18:52;;;;;;;19.48;9.93;;;4.50;99.90;;;;;;5044309;28;20053;-82
2022/12/19 12:21:46;;;;;;;18.58;8.63;;;4.00;99.90;;;;;;5032690;28;20030;-85
2022/12/19 12:24:34;;;;;;;16.27;8.32;;;4.50;99.90;;;;;;4992618;28;20034;-80
2022/12/19 12:27:37;;;;;;;19.58;9.02;;;4.50;99.90;;;;;;5032829;28;20021;-86
2022/12/19 12:30:10;;;;;;;19.70;7.60;;;4.70;99.90;;;;;;5034078;28;20025;-84
2022/12/19 12:32:56;;;;;;;15.82;7.97;;;4.60;99.90;;;;;;5045541;28;20034;-76
2022/12/19 12:35:43;;;;;;;19.33;7.85;;;4.70;99.90;;;;;;5052268;28;20022;-79
2022/12/19 12:38:49;;;;;;;15.40;7.85;;;4.80;99.90;;;;;;5039864;28;20042;-89
2022/12/19 12:44:22;;;;;;;18.70;9.20;;;3.90;99.90;;;;;;5045099;28;20619;-83
2022/12/19 12:46:58;;;;;;;19.80;10.77;;;4.00;99.90;;;;;;5052196;28;20025;-78
2022/12/19 12:49:53;;;;;;;16.10;8.27;;;4.10;99.90;;;;;;5053387;28;20025;-75
2022/12/19 12:52:39;;;;;;;17.52;10.30;;;4.10;99.90;;;;;;5046735;28;20039;-76
2022/12/19 12:55:16;;;;;;;18.52;9.45;;;4.10;99.90;;;;;;5051987;28;20021;-75
2022/12/19 12:57:42;;;;;;;19.02;8.00;;;4.20;99.90;;;;;;5052441;28;20112;-75
2022/12/19 13:00:31;;;;;;;18.45;9.13;;;4.20;99.90;;;;;;5049654;28;20434;-76
2022/12/19 13:03:04;;;;;;;20.42;9.73;;;4.20;99.90;;;;;;5047184;28;20108;-76
2022/12/19 13:05:47;;;;;;;17.25;10.20;;;4.30;99.90;;;;;;5047010;28;20037;-75
2022/12/19 13:08:42;;;;;;;16.20;9.02;;;4.50;99.90;;;;;;5046680;28;20296;-76